• Join FlightAware (Why Join?)
  • Login
  • US Flag 
11:57PM EDT


 

Airport Tracker/Info


-or-


 

Live Flight TrackerFlight Track Log ✈ N53NW ✈ 11-May-2013 ✈ KMTH - KBCT

Flight Track Log - Related Links

Times and Time Zones

All times are in EDT time to prevent confusion due to time zone crossing. See the N53NW flight status page for this flight to view local times or setup timezone preferences in your user account.

Time Position Orientation Groundspeed Altitude Reporting Facility
EDT Latitude Longitude Course Direction KTS MPH feet Rate Location/Type
01:11PM 24.8986 -80.9067 27° Northeast 297 342 7,800  Level Miami Center
01:12PM 24.9664 -80.8700 26° Northeast 278 320 9,400 540 Climbing Miami Center
01:13PM 25.0281 -80.8283 31° Northeast 262 302 8,900 -300 Descending Miami Center
01:14PM 25.0969 -80.8328 357° North 235 270 8,900  Level Miami Center
01:15PM 25.1736 -80.8536 346° North 245 282 8,900  Level Miami Center
01:16PM 25.0396 -80.8417 27° Northeast  Level FlightAware Approximate
01:16PM 25.2506 -80.8722 348° North 269 310 8,900  Level Miami Center
01:17PM 25.3272 -80.8933 346° North 279 321 8,900  Level Miami Center
01:18PM 25.4017 -80.9117 347° North 279 321 8,900  Level Miami Center
01:19PM 25.4786 -80.9306 348° North 279 321 8,900  Level Miami Center
01:20PM 25.5553 -80.9492 348° North 279 321 8,900  Level Miami Center
01:21PM 25.6322 -80.9678 348° North 279 321 8,900  Level Miami Center
01:22PM 25.7069 -80.9842 349° North 279 321 8,900  Level Miami Center
01:23PM 25.7836 -81.0031 347° North 279 321 9,000  Climbing Miami Center
01:24PM 25.8583 -81.0172 350° North 279 321 8,900  Descending Miami Center
01:25PM 25.9356 -81.0222 357° North 274 315 9,000  Climbing Miami Center
01:26PM 26.0111 -81.0108 North 274 315 8,900 -60 Descending Miami Center
01:27PM 26.0858 -81.0181 355° North 274 315 8,900  Level Miami Center
01:28PM 26.1597 -80.9931 17° North 274 315 8,900  Level Miami Center
01:29PM 26.2317 -80.9583 23° Northeast 274 315 9,000 -240 Climbing Miami Center
01:30PM 26.2911 -80.9281 25° Northeast 269 310 8,500 -1,080 Descending Miami Center
01:31PM 26.3694 -80.8914 23° Northeast 269 310 6,900 -1,500 Descending Miami Center
01:32PM 26.4128 -80.8325 51° Northeast 255 293 5,600 -960 Descending Miami Center
01:33PM 26.4378 -80.7592 69° East 246 283 5,000 -300 Descending Miami Center
01:34PM 26.4439 -80.6875 85° East 241 277 5,000 -600 Level Miami Center
01:35PM 26.4394 -80.6108 94° East 236 272 3,800 -1,080 Descending Miami Center
01:36PM 26.4286 -80.5408 100° East 236 272 2,900 -960 Descending Miami Center
01:37PM 26.4222 -80.4711 96° East 236 272 1,900 -480 Descending Miami Center
01:38PM 26.4133 -80.4058 99° East 222 255 2,000  Climbing Miami Center
01:39PM 26.4064 -80.3475 98° East 216 249 2,000  Level Miami Center
01:40PM 26.3975 -80.2756 98° East 216 249 2,000  Level Miami Center
01:41PM 26.3925 -80.2197 96° East 216 249 2,000  Level Miami Center
01:42PM 26.4125 -80.1692 66° East 198 228 2,100 -120 Climbing Miami Center
01:42PM 26.4303 -80.1233 67° East 177 204 1,800 -600 Descending Miami Center
01:44PM 26.4208 -80.0836 105° East 110 127 1,000 -720 Descending Miami Center
01:45PM 26.3914 -80.0919 194° South 92 106 300 -720 Descending Miami Center
01:47PM 26.3667 -80.1000 197° South  Level FlightAware Approximate
01:54PM 26.3785 -80.1077 197° South  Level Estimated
01:55PM 26.3785 -80.1077 197° South  Level Estimated
01:56PM 26.3785 -80.1077 197° South  Level Estimated
01:57PM 26.3785 -80.1077 197° South  Level Estimated
01:58PM 26.3785 -80.1077 197° South  Level Estimated
01:59PM 26.3785 -80.1077 197° South  Level Estimated